East Union, Washington
Current Conditions -  °F | °C
As of 4:53 AM on Sunday 21 Dec 2014 (Local Time) from KBFI Reporting Station
Few Clouds Few Clouds  
Wind Chill: 54°   Ceiling: Unl
Heat Index: 54°   Visibility: 10mi
Dew Point: 45°   Wind: 12mph
Humidity: 72%   Direction: 210°SSW
Pressure: 29.75"   Gusts: 21mph
Location:  47.6108°N, 122.302°W
Report Text: KBFI 211253Z 21010G18KT 10SM FEW012 12/07 A2975 RMK AO2 SLP074 T01220072
Loading
Personal Weather Stations






























Interactive Weather Map New forecast layout! Learn more

10-Day Weather Forecast

Advertisements
Track Severe Weather on mobile